Time;durP1;ratioP1;P1;durP2;ratioP2;P2;SDS_P1;SDS_P2;PMS_P1;PMS_P2;Temp;Humidity;BMP_temperature;BMP_pressure;BME280_temperature;BME280_humidity;BME280_pressure;Samples;Min_cycle;Max_cycle;Signal;HPM_P1;HPM_P2
2023/05/08 00:01:59;;;;;;;4.93;3.38;;;15.70;99.90;;;;;;5034020;28;20064;-43
2023/05/08 00:04:25;;;;;;;5.63;2.95;;;15.70;99.90;;;;;;5034013;28;20030;-43
2023/05/08 00:06:51;;;;;;;4.25;3.25;;;15.70;99.90;;;;;;5033405;28;20060;-42
2023/05/08 00:09:18;;;;;;;3.42;3.05;;;15.70;99.90;;;;;;5033722;28;20509;-43
2023/05/08 00:11:44;;;;;;;4.30;3.15;;;15.70;99.90;;;;;;5034080;28;20112;-43
2023/05/08 00:14:09;;;;;;;3.45;2.47;;;15.70;99.90;;;;;;5033737;28;20506;-43
2023/05/08 00:16:36;;;;;;;3.65;3.08;;;15.70;99.90;;;;;;5032953;28;20033;-44
2023/05/08 00:19:02;;;;;;;3.38;2.80;;;15.70;99.90;;;;;;5033568;28;20501;-43
2023/05/08 00:21:27;;;;;;;4.47;3.08;;;15.60;99.90;;;;;;5033674;28;20034;-43
2023/05/08 00:23:53;;;;;;;4.32;3.28;;;15.70;99.90;;;;;;5033617;28;20048;-44
2023/05/08 00:26:19;;;;;;;5.05;3.35;;;15.70;99.90;;;;;;5032927;28;20549;-44
2023/05/08 00:28:45;;;;;;;4.18;3.70;;;15.70;99.90;;;;;;5033476;28;20500;-45
2023/05/08 00:31:11;;;;;;;7.40;4.22;;;15.70;99.90;;;;;;5033366;28;20033;-45
2023/05/08 00:33:36;;;;;;;4.88;3.40;;;15.70;99.90;;;;;;5033297;28;20033;-44
2023/05/08 00:36:03;;;;;;;5.53;3.38;;;15.70;99.90;;;;;;5032641;28;20037;-42
2023/05/08 00:38:34;;;;;;;7.47;3.65;;;15.70;99.90;;;;;;5033228;28;20561;-43
2023/05/08 00:41:00;;;;;;;5.15;3.13;;;15.70;99.90;;;;;;5033214;28;20379;-43
2023/05/08 00:43:29;;;;;;;6.30;4.53;;;15.70;99.90;;;;;;5033206;28;20041;-43
2023/05/08 00:45:57;;;;;;;4.70;3.70;;;15.70;99.90;;;;;;5032551;28;20115;-44
2023/05/08 00:48:24;;;;;;;4.47;3.33;;;15.70;99.90;;;;;;5033197;28;20038;-48
2023/05/08 00:50:52;;;;;;;6.55;4.03;;;15.70;99.90;;;;;;5033110;28;20034;-43
2023/05/08 00:53:21;;;;;;;7.75;4.28;;;15.70;99.90;;;;;;5033218;28;20406;-45
2023/05/08 00:55:47;;;;;;;4.18;3.78;;;15.70;99.90;;;;;;5032473;28;20548;-43
2023/05/08 00:58:14;;;;;;;4.70;3.67;;;15.70;99.90;;;;;;5032763;28;20083;-44
2023/05/08 01:00:42;;;;;;;5.25;3.83;;;15.70;99.90;;;;;;5032730;28;20551;-45
2023/05/08 01:03:09;;;;;;;5.97;3.55;;;15.70;99.90;;;;;;5032769;28;20475;-44
2023/05/08 01:05:35;;;;;;;4.22;3.22;;;15.70;99.90;;;;;;5032847;28;20021;-45
2023/05/08 01:08:01;;;;;;;4.50;3.35;;;15.60;99.90;;;;;;5032187;28;20029;-44
2023/05/08 01:10:37;;;;;;;3.83;3.42;;;15.70;99.90;;;;;;5032669;28;20148;-44
2023/05/08 01:13:26;;;;;;;4.00;3.05;;;15.60;99.90;;;;;;5032411;28;20056;-44
2023/05/08 01:16:16;;;;;;;4.20;3.03;;;15.60;99.90;;;;;;5032149;28;20064;-43
2023/05/08 01:18:49;;;;;;;5.45;3.30;;;15.60;99.90;;;;;;5032162;28;20039;-43
2023/05/08 01:21:24;;;;;;;5.80;3.55;;;15.60;99.90;;;;;;5031202;28;20482;-43
2023/05/08 01:24:16;;;;;;;4.35;3.13;;;15.60;99.90;;;;;;5032393;28;20026;-43
2023/05/08 01:27:12;;;;;;;4.13;3.72;;;15.60;99.90;;;;;;5008600;28;20037;-44
2023/05/08 01:30:04;;;;;;;3.50;2.67;;;15.60;99.90;;;;;;5031640;28;20036;-45
2023/05/08 01:32:39;;;;;;;4.78;3.38;;;15.60;99.90;;;;;;5032277;28;20032;-45
2023/05/08 01:35:22;;;;;;;3.92;3.40;;;15.60;99.90;;;;;;5032239;28;20100;-48
2023/05/08 01:37:56;;;;;;;4.68;2.90;;;15.60;99.90;;;;;;5055602;22;20042;-39
2023/05/08 01:40:34;;;;;;;3.97;3.17;;;15.60;99.90;;;;;;5032126;28;20037;-39
2023/05/08 01:43:21;;;;;;;4.45;3.00;;;15.60;99.90;;;;;;5032155;28;20389;-38
2023/05/08 01:45:50;;;;;;;4.03;3.55;;;15.60;99.90;;;;;;5031669;28;20030;-39
2023/05/08 01:48:31;;;;;;;3.97;3.53;;;15.60;99.90;;;;;;5031854;28;20025;-37
2023/05/08 01:51:07;;;;;;;3.67;3.20;;;15.60;99.90;;;;;;5031859;28;20078;-39
2023/05/08 01:53:39;;;;;;;5.38;3.35;;;15.60;99.90;;;;;;5031819;28;20017;-39
2023/05/08 01:56:11;;;;;;;4.88;2.97;;;15.60;99.90;;;;;;5031229;28;20025;-38
2023/05/08 01:58:37;;;;;;;3.38;3.08;;;15.50;99.90;;;;;;5031818;28;20032;-39
2023/05/08 02:01:03;;;;;;;5.95;2.63;;;15.50;99.90;;;;;;5031528;28;20219;-38
2023/05/08 02:03:31;;;;;;;3.92;2.92;;;15.60;99.90;;;;;;5031657;28;20021;-38
2023/05/08 02:05:59;;;;;;;5.68;3.47;;;15.60;99.90;;;;;;5031346;28;20088;-38
2023/05/08 02:08:26;;;;;;;4.35;3.55;;;15.50;99.90;;;;;;5031513;28;20363;-39
2023/05/08 02:10:53;;;;;;;4.97;3.20;;;15.60;99.90;;;;;;5031493;28;20490;-38
2023/05/08 02:13:20;;;;;;;3.53;3.00;;;15.60;99.90;;;;;;5031455;28;20029;-39
2023/05/08 02:15:48;;;;;;;4.05;3.08;;;15.50;99.90;;;;;;5031026;28;20036;-39
2023/05/08 02:18:15;;;;;;;8.00;3.80;;;15.50;99.90;;;;;;5029994;28;20018;-40
2023/05/08 02:20:41;;;;;;;4.25;3.30;;;15.50;99.90;;;;;;5031483;28;20032;-39
2023/05/08 02:23:07;;;;;;;5.38;3.80;;;15.50;99.90;;;;;;5031380;28;20386;-38
2023/05/08 02:25:35;;;;;;;6.22;3.83;;;15.60;99.90;;;;;;5031333;28;20533;-38
2023/05/08 02:28:02;;;;;;;4.50;3.53;;;15.60;99.90;;;;;;5030619;28;20025;-39
2023/05/08 02:30:28;;;;;;;2.97;2.53;;;15.60;99.90;;;;;;5031196;28;20026;-39
2023/05/08 02:32:55;;;;;;;4.43;3.40;;;15.60;99.90;;;;;;5031211;28;20052;-39
2023/05/08 02:35:23;;;;;;;4.15;3.03;;;15.50;99.90;;;;;;5031195;28;20501;-39
2023/05/08 02:37:52;;;;;;;3.67;3.28;;;15.50;99.90;;;;;;5030501;28;20451;-39
2023/05/08 02:40:21;;;;;;;3.90;3.35;;;15.50;99.90;;;;;;5030669;28;20021;-39
2023/05/08 02:42:46;;;;;;;4.78;3.97;;;15.50;99.90;;;;;;5030986;28;20486;-38
2023/05/08 02:45:12;;;;;;;6.35;3.75;;;15.50;99.90;;;;;;5031110;28;20091;-39
2023/05/08 02:47:45;;;;;;;4.65;3.70;;;15.60;99.90;;;;;;5030589;28;20036;-39
2023/05/08 02:50:34;;;;;;;6.63;3.78;;;15.60;99.90;;;;;;5030967;28;20364;-38
2023/05/08 02:53:05;;;;;;;3.80;3.50;;;15.60;99.90;;;;;;5030849;28;20021;-38
2023/05/08 02:55:53;;;;;;;4.20;3.30;;;15.50;99.90;;;;;;5031041;28;20026;-38
2023/05/08 02:58:51;;;;;;;4.45;3.20;;;15.50;99.90;;;;;;5030895;28;20072;-38
2023/05/08 03:01:36;;;;;;;4.28;3.22;;;15.50;99.90;;;;;;5030507;28;20037;-39
2023/05/08 03:04:07;;;;;;;3.70;3.25;;;15.60;99.90;;;;;;5030952;28;20493;-39
2023/05/08 03:06:40;;;;;;;4.47;2.80;;;15.50;99.90;;;;;;5030448;28;20022;-39
2023/05/08 03:09:09;;;;;;;4.03;3.60;;;15.50;99.90;;;;;;5030826;28;20029;-39
2023/05/08 03:11:42;;;;;;;5.03;3.60;;;15.40;99.90;;;;;;5030760;28;20025;-39
2023/05/08 03:14:11;;;;;;;4.20;3.40;;;15.40;99.90;;;;;;5030774;28;20025;-38
2023/05/08 03:16:40;;;;;;;4.18;3.10;;;15.50;99.90;;;;;;5030295;28;20018;-40
2023/05/08 03:19:09;;;;;;;3.58;3.00;;;15.50;99.90;;;;;;5030798;28;20498;-39
2023/05/08 03:21:36;;;;;;;4.43;3.42;;;15.40;99.90;;;;;;5030741;28;20033;-38
2023/05/08 03:24:04;;;;;;;3.33;3.03;;;15.40;99.90;;;;;;5030741;28;20030;-39
2023/05/08 03:26:30;;;;;;;4.63;3.78;;;15.40;99.90;;;;;;5029958;28;20211;-38
2023/05/08 03:28:57;;;;;;;5.35;3.10;;;15.40;99.90;;;;;;5030764;28;20096;-39
2023/05/08 03:31:24;;;;;;;4.63;3.70;;;15.40;99.90;;;;;;5030773;28;20037;-38
2023/05/08 03:33:52;;;;;;;6.88;3.85;;;15.40;99.90;;;;;;5030620;28;20026;-39
2023/05/08 03:36:18;;;;;;;3.30;3.00;;;15.40;99.90;;;;;;5029877;28;20041;-38
2023/05/08 03:38:44;;;;;;;4.88;3.38;;;15.40;99.90;;;;;;5030514;28;20014;-38
2023/05/08 03:41:11;;;;;;;5.05;3.30;;;15.40;99.90;;;;;;5030428;28;20091;-38
2023/05/08 03:43:37;;;;;;;4.50;3.53;;;15.40;99.90;;;;;;5030559;28;20029;-38
2023/05/08 03:46:06;;;;;;;6.10;4.32;;;15.40;99.90;;;;;;5029979;28;20033;-40
2023/05/08 03:48:33;;;;;;;6.70;4.05;;;15.40;99.90;;;;;;5030592;28;20038;-39
2023/05/08 03:51:03;;;;;;;4.30;3.90;;;15.50;99.90;;;;;;5031235;28;20474;-37
2023/05/08 03:53:30;;;;;;;4.80;3.72;;;15.50;99.90;;;;;;5033971;28;20025;-39
2023/05/08 03:55:59;;;;;;;4.97;3.40;;;15.50;99.90;;;;;;5033619;28;20093;-39
2023/05/08 03:58:51;;;;;;;3.80;3.33;;;15.50;99.90;;;;;;5034040;28;20017;-38
2023/05/08 04:01:26;;;;;;;3.33;2.70;;;15.40;99.90;;;;;;5034150;28;20029;-39
2023/05/08 04:04:10;;;;;;;4.95;2.90;;;15.40;99.90;;;;;;5034030;28;20028;-39
2023/05/08 04:07:13;;;;;;;5.10;4.50;;;15.40;99.90;;;;;;5033378;28;20028;-39
2023/05/08 04:09:53;;;;;;;6.38;3.75;;;15.40;99.90;;;;;;5033826;28;20032;-39
2023/05/08 04:12:25;;;;;;;4.05;3.50;;;15.50;99.90;;;;;;5033779;28;20017;-37
2023/05/08 04:15:08;;;;;;;4.57;3.33;;;15.40;99.90;;;;;;5033875;28;20490;-38
2023/05/08 04:17:38;;;;;;;3.78;3.25;;;15.40;99.90;;;;;;5033204;28;20514;-38
2023/05/08 04:20:07;;;;;;;4.18;3.60;;;15.40;99.90;;;;;;5033669;28;20029;-41
2023/05/08 04:22:36;;;;;;;4.43;3.10;;;15.40;99.90;;;;;;5033491;28;20018;-38
2023/05/08 04:25:04;;;;;;;4.28;3.35;;;15.40;99.90;;;;;;5033555;28;20061;-39
2023/05/08 04:27:30;;;;;;;4.32;3.47;;;15.40;99.90;;;;;;5032891;28;20486;-39
2023/05/08 04:29:57;;;;;;;4.25;2.80;;;15.40;99.90;;;;;;5033394;28;20034;-39
2023/05/08 04:32:23;;;;;;;5.00;3.80;;;15.40;99.90;;;;;;5033371;28;20076;-39
2023/05/08 04:34:49;;;;;;;3.55;3.25;;;15.40;99.90;;;;;;5033365;28;20115;-39
2023/05/08 04:37:25;;;;;;;3.75;3.35;;;15.40;99.90;;;;;;5032580;28;20033;-39
2023/05/08 04:39:51;;;;;;;4.00;3.60;;;15.40;99.90;;;;;;5033257;28;20517;-38
2023/05/08 04:42:17;;;;;;;4.38;3.97;;;15.40;99.90;;;;;;5033221;28;20037;-40
2023/05/08 04:44:42;;;;;;;5.03;4.38;;;15.40;99.90;;;;;;5033219;28;20032;-39
2023/05/08 04:47:08;;;;;;;3.90;3.50;;;15.40;99.90;;;;;;5032550;28;20525;-38
2023/05/08 04:49:34;;;;;;;4.45;3.40;;;15.40;99.90;;;;;;5032930;28;20079;-38
2023/05/08 04:52:00;;;;;;;4.10;3.70;;;15.40;99.90;;;;;;5032909;28;20026;-39
2023/05/08 04:54:26;;;;;;;4.93;3.38;;;15.40;99.90;;;;;;5033072;28;20562;-38
2023/05/08 04:56:51;;;;;;;8.05;3.97;;;15.50;99.90;;;;;;5031051;28;20128;-37
2023/05/08 04:59:17;;;;;;;12.68;4.65;;;15.40;99.90;;;;;;5032887;28;20067;-38
2023/05/08 05:01:45;;;;;;;4.95;3.88;;;15.40;99.90;;;;;;5032717;28;20036;-38
2023/05/08 05:04:11;;;;;;;4.07;3.67;;;15.40;99.90;;;;;;5031887;28;20032;-39
2023/05/08 05:06:37;;;;;;;5.03;3.85;;;15.40;99.90;;;;;;5032483;28;20116;-39
2023/05/08 05:09:04;;;;;;;4.85;3.63;;;15.40;99.90;;;;;;5032821;28;20064;-38
2023/05/08 05:11:29;;;;;;;4.97;4.03;;;15.40;99.90;;;;;;5032707;28;20029;-38
2023/05/08 05:13:55;;;;;;;5.55;3.42;;;15.40;99.90;;;;;;5032838;28;20026;-39
2023/05/08 05:16:20;;;;;;;3.67;3.30;;;15.40;99.90;;;;;;5031999;28;20474;-40
2023/05/08 05:18:46;;;;;;;5.78;3.65;;;15.40;99.90;;;;;;5032400;28;20032;-38
2023/05/08 05:21:12;;;;;;;4.13;3.30;;;15.40;99.90;;;;;;5032446;28;20098;-39
2023/05/08 05:23:37;;;;;;;7.68;3.67;;;15.40;99.90;;;;;;5032511;28;20033;-38
2023/05/08 05:26:03;;;;;;;3.60;3.03;;;15.40;99.90;;;;;;5031845;28;20104;-38
2023/05/08 05:28:29;;;;;;;4.40;3.47;;;15.40;99.90;;;;;;5032457;28;20037;-38
2023/05/08 05:30:55;;;;;;;4.35;3.35;;;15.40;99.90;;;;;;5032246;28;20389;-38
2023/05/08 05:33:20;;;;;;;5.38;2.90;;;15.40;99.90;;;;;;5032160;28;20013;-39
2023/05/08 05:35:46;;;;;;;4.70;4.18;;;15.40;99.90;;;;;;5031730;28;20029;-39
2023/05/08 05:38:12;;;;;;;6.95;4.13;;;15.40;99.90;;;;;;5032228;28;20037;-38
2023/05/08 05:40:37;;;;;;;3.55;3.20;;;15.40;99.90;;;;;;5032115;28;20490;-39
2023/05/08 05:43:03;;;;;;;7.07;3.13;;;15.40;99.90;;;;;;5032064;28;20108;-39
2023/05/08 05:45:29;;;;;;;4.45;3.42;;;15.40;99.90;;;;;;5032002;28;20063;-38
2023/05/08 05:47:55;;;;;;;4.95;3.97;;;15.40;99.90;;;;;;5031383;28;20021;-39
2023/05/08 05:50:21;;;;;;;4.82;4.15;;;15.30;99.90;;;;;;5031800;28;20077;-39
2023/05/08 05:52:47;;;;;;;8.35;5.18;;;15.40;99.90;;;;;;5031894;28;20017;-40
2023/05/08 05:55:13;;;;;;;6.32;4.60;;;15.40;99.90;;;;;;5030803;28;20039;-38
2023/05/08 05:57:38;;;;;;;5.50;4.30;;;15.40;99.90;;;;;;5031254;28;20363;-39
2023/05/08 06:00:05;;;;;;;6.30;3.63;;;15.40;99.90;;;;;;5031730;28;20036;-38
2023/05/08 06:02:32;;;;;;;4.90;3.80;;;15.40;99.90;;;;;;5031616;28;20040;-39
2023/05/08 06:04:59;;;;;;;6.93;4.63;;;15.40;99.90;;;;;;5031727;28;20028;-38
2023/05/08 06:07:24;;;;;;;5.05;4.07;;;15.40;99.90;;;;;;5030967;28;20509;-40
2023/05/08 06:09:52;;;;;;;5.72;4.60;;;15.40;99.90;;;;;;5031848;28;20030;-39
2023/05/08 06:12:18;;;;;;;7.68;4.00;;;15.40;99.90;;;;;;5030304;28;20021;-39
2023/05/08 06:14:43;;;;;;;7.50;4.65;;;15.40;99.90;;;;;;5031335;28;20030;-40
2023/05/08 06:17:09;;;;;;;5.35;4.53;;;15.40;99.90;;;;;;5030746;28;20068;-38
2023/05/08 06:19:35;;;;;;;7.10;4.95;;;15.40;99.90;;;;;;5031363;28;20095;-39
2023/05/08 06:22:01;;;;;;;6.00;5.22;;;15.40;99.90;;;;;;5031353;28;20021;-39
2023/05/08 06:24:27;;;;;;;5.82;5.22;;;15.40;99.90;;;;;;5031308;28;20036;-39
2023/05/08 06:26:53;;;;;;;8.18;6.00;;;15.40;99.90;;;;;;5030706;28;20021;-39
2023/05/08 06:29:18;;;;;;;5.35;4.78;;;15.40;99.90;;;;;;5031035;28;20358;-39
2023/05/08 06:31:44;;;;;;;7.57;6.45;;;15.40;99.90;;;;;;5031068;28;20032;-39
2023/05/08 06:34:09;;;;;;;6.82;6.07;;;15.40;99.90;;;;;;5031250;28;20030;-38
2023/05/08 06:36:35;;;;;;;20.35;15.60;;;15.40;99.90;;;;;;5030442;28;20079;-41
2023/05/08 06:39:04;;;;;;;22.85;16.88;;;15.40;99.90;;;;;;5031405;28;20032;-42
2023/05/08 06:41:30;;;;;;;22.63;15.55;;;15.40;99.90;;;;;;5031101;28;20589;-40
2023/05/08 06:43:55;;;;;;;20.25;16.75;;;15.40;99.90;;;;;;5030927;28;20034;-40
2023/05/08 06:46:21;;;;;;;21.25;15.90;;;15.40;99.90;;;;;;5030334;28;20066;-41
2023/05/08 06:48:46;;;;;;;19.92;15.15;;;15.40;99.90;;;;;;5031243;28;20029;-40
2023/05/08 06:51:12;;;;;;;19.50;14.88;;;15.40;99.90;;;;;;5030879;28;20037;-41
2023/05/08 06:53:37;;;;;;;21.08;15.05;;;15.50;99.90;;;;;;5030991;28;20386;-40
2023/05/08 06:56:04;;;;;;;18.95;14.02;;;15.50;99.90;;;;;;5030520;28;20025;-40
2023/05/08 06:58:31;;;;;;;20.35;14.05;;;15.50;99.90;;;;;;5030990;28;20403;-43
2023/05/08 07:00:58;;;;;;;17.10;13.80;;;15.50;99.90;;;;;;5030762;28;20036;-40
2023/05/08 07:03:25;;;;;;;16.60;14.07;;;15.50;99.90;;;;;;5030944;28;20036;-40
2023/05/08 07:05:50;;;;;;;17.13;14.57;;;15.50;99.90;;;;;;5030515;28;20079;-41
2023/05/08 07:08:16;;;;;;;17.58;13.63;;;15.60;99.90;;;;;;5030780;28;20041;-43
2023/05/08 07:10:41;;;;;;;16.02;13.05;;;15.60;99.90;;;;;;5030825;28;20200;-40
2023/05/08 07:13:07;;;;;;;16.17;12.90;;;15.60;99.90;;;;;;5030817;28;20533;-39
2023/05/08 07:15:33;;;;;;;18.35;13.52;;;15.60;99.90;;;;;;5030574;28;20084;-40
2023/05/08 07:17:58;;;;;;;16.05;12.80;;;15.50;99.90;;;;;;5030261;28;20064;-39
2023/05/08 07:20:24;;;;;;;17.33;12.93;;;15.60;99.90;;;;;;5030803;28;20034;-40
2023/05/08 07:22:50;;;;;;;17.15;13.20;;;15.60;99.90;;;;;;5030906;28;20028;-40
2023/05/08 07:25:15;;;;;;;15.85;12.35;;;15.60;99.90;;;;;;5030720;28;20025;-40
2023/05/08 07:27:41;;;;;;;13.80;12.02;;;15.60;99.90;;;;;;5033862;28;20363;-39
2023/05/08 07:30:07;;;;;;;13.65;11.73;;;15.60;99.90;;;;;;5034360;28;20061;-42
2023/05/08 07:32:33;;;;;;;16.17;12.70;;;15.60;99.90;;;;;;5034510;28;20033;-41
2023/05/08 07:34:59;;;;;;;16.63;12.95;;;15.60;99.90;;;;;;5034735;28;20233;-40
2023/05/08 07:37:25;;;;;;;16.48;12.18;;;15.60;99.90;;;;;;5034279;28;20086;-42
2023/05/08 07:39:50;;;;;;;14.50;11.70;;;15.60;99.90;;;;;;5034375;28;20483;-40
2023/05/08 07:42:17;;;;;;;14.65;10.90;;;15.60;99.90;;;;;;5034327;28;20032;-40
2023/05/08 07:44:43;;;;;;;14.63;11.10;;;15.60;99.90;;;;;;5034178;28;20029;-40
2023/05/08 07:47:08;;;;;;;14.55;11.40;;;15.60;99.90;;;;;;5033887;28;20681;-40
2023/05/08 07:49:34;;;;;;;12.43;10.80;;;15.60;99.90;;;;;;5034164;28;20033;-41
2023/05/08 07:51:59;;;;;;;16.27;10.85;;;15.60;99.90;;;;;;5034161;28;20071;-40
2023/05/08 07:54:25;;;;;;;13.52;9.90;;;15.70;99.90;;;;;;5034164;28;20036;-40
2023/05/08 07:56:51;;;;;;;15.60;11.20;;;15.60;99.90;;;;;;5033476;28;20021;-41
2023/05/08 07:59:17;;;;;;;15.25;10.13;;;15.60;99.90;;;;;;5033904;28;20033;-41
2023/05/08 08:01:46;;;;;;;14.38;10.85;;;15.60;99.90;;;;;;5034093;28;20029;-41
2023/05/08 08:04:13;;;;;;;13.82;10.23;;;15.60;99.90;;;;;;5034179;28;20014;-39
2023/05/08 08:06:39;;;;;;;12.15;9.77;;;15.60;99.90;;;;;;5033566;28;20413;-39
2023/05/08 08:09:05;;;;;;;13.75;9.77;;;15.60;99.90;;;;;;5033877;28;20038;-39
2023/05/08 08:11:30;;;;;;;12.73;9.20;;;15.70;99.90;;;;;;5033943;28;20088;-41
2023/05/08 08:13:56;;;;;;;12.90;9.15;;;15.60;99.90;;;;;;5033660;28;20481;-39
2023/05/08 08:16:22;;;;;;;13.65;9.57;;;15.70;99.90;;;;;;5033683;28;20014;-40
2023/05/08 08:18:47;;;;;;;11.85;8.77;;;15.60;99.90;;;;;;5033838;28;20474;-39
2023/05/08 08:21:13;;;;;;;11.68;8.75;;;15.60;99.90;;;;;;5033667;28;20028;-40
2023/05/08 08:23:38;;;;;;;10.73;8.68;;;15.60;99.90;;;;;;5033671;28;20100;-40
2023/05/08 08:26:04;;;;;;;10.52;8.57;;;15.60;99.90;;;;;;5033480;28;20026;-40
2023/05/08 08:28:30;;;;;;;10.35;8.43;;;15.60;99.90;;;;;;5033305;28;20068;-40
2023/05/08 08:30:55;;;;;;;12.93;8.05;;;15.60;99.90;;;;;;5033580;28;20025;-41
2023/05/08 08:33:21;;;;;;;9.38;7.43;;;15.60;99.90;;;;;;5033497;28;20025;-41
2023/05/08 08:35:46;;;;;;;12.15;7.70;;;15.60;99.90;;;;;;5032898;28;20037;-40
2023/05/08 08:38:12;;;;;;;12.25;7.68;;;15.60;99.90;;;;;;5033155;28;20133;-39
2023/05/08 08:40:41;;;;;;;10.70;6.95;;;15.60;99.90;;;;;;5033208;28;20033;-39
2023/05/08 08:43:08;;;;;;;8.00;7.10;;;15.60;99.90;;;;;;5033339;28;20444;-40
2023/05/08 08:45:35;;;;;;;12.82;7.70;;;15.60;99.90;;;;;;5033215;28;20494;-40
2023/05/08 08:48:02;;;;;;;8.90;7.05;;;15.60;99.90;;;;;;5032560;28;20044;-39
2023/05/08 08:50:31;;;;;;;7.63;6.50;;;15.60;99.90;;;;;;5033052;28;20057;-39
2023/05/08 08:53:26;;;;;;;9.45;6.53;;;15.60;99.90;;;;;;5033110;28;20025;-43
2023/05/08 08:55:54;;;;;;;7.82;6.63;;;15.60;99.90;;;;;;5032633;28;20018;-41
2023/05/08 08:58:45;;;;;;;7.68;6.45;;;15.60;99.90;;;;;;5032835;28;20018;-40
2023/05/08 09:01:16;;;;;;;8.55;6.43;;;15.60;99.90;;;;;;5033049;28;20033;-40
2023/05/08 09:03:42;;;;;;;9.30;7.28;;;15.60;99.90;;;;;;5032975;28;20524;-40
2023/05/08 09:06:08;;;;;;;8.35;6.88;;;15.60;99.90;;;;;;5032188;28;20057;-40
2023/05/08 09:08:34;;;;;;;13.40;7.32;;;15.60;99.90;;;;;;5032810;28;20505;-40
2023/05/08 09:11:01;;;;;;;10.82;7.00;;;15.60;99.90;;;;;;5032695;28;20053;-41
2023/05/08 09:13:28;;;;;;;7.78;6.53;;;15.60;99.90;;;;;;5032695;28;20029;-40
2023/05/08 09:15:54;;;;;;;8.05;5.70;;;15.60;99.90;;;;;;5032179;28;20394;-40
2023/05/08 09:18:20;;;;;;;6.35;5.50;;;15.70;99.90;;;;;;5032393;28;20038;-40
2023/05/08 09:20:46;;;;;;;7.47;5.97;;;15.70;99.90;;;;;;5032492;28;20025;-40
2023/05/08 09:23:16;;;;;;;8.00;5.45;;;15.70;99.90;;;;;;5032485;28;20487;-40
2023/05/08 09:25:48;;;;;;;6.95;5.68;;;15.70;99.90;;;;;;5032117;28;20083;-39
2023/05/08 09:28:24;;;;;;;6.75;5.45;;;15.70;99.90;;;;;;5032382;28;20340;-40
2023/05/08 09:30:52;;;;;;;6.78;4.63;;;15.70;99.90;;;;;;5032162;28;20067;-40
2023/05/08 09:33:19;;;;;;;5.75;5.03;;;15.70;99.90;;;;;;5032390;28;20514;-40
2023/05/08 09:35:47;;;;;;;6.50;5.00;;;15.70;99.90;;;;;;5031836;28;20029;-39
2023/05/08 09:38:38;;;;;;;6.93;4.68;;;15.70;99.90;;;;;;5032157;28;20034;-40
2023/05/08 09:41:09;;;;;;;4.80;4.22;;;15.70;99.90;;;;;;5032160;28;20498;-40
2023/05/08 09:43:35;;;;;;;5.05;4.32;;;15.70;99.90;;;;;;5031986;28;20029;-40
2023/05/08 09:46:25;;;;;;;6.10;4.38;;;15.70;99.90;;;;;;5031583;28;20417;-39
2023/05/08 09:48:52;;;;;;;6.68;4.00;;;15.70;99.90;;;;;;5031563;28;20033;-40
2023/05/08 09:51:18;;;;;;;6.28;3.67;;;15.70;99.90;;;;;;5031932;28;20060;-40
2023/05/08 09:53:45;;;;;;;7.45;4.00;;;15.70;99.90;;;;;;5031882;28;20057;-39
2023/05/08 09:56:10;;;;;;;5.03;3.83;;;15.70;99.90;;;;;;5031339;28;20098;-39
2023/05/08 09:58:43;;;;;;;4.65;3.72;;;15.70;99.90;;;;;;5031880;28;20514;-39
2023/05/08 10:01:34;;;;;;;4.18;3.78;;;15.70;99.90;;;;;;5031780;28;20025;-41
2023/05/08 10:04:00;;;;;;;5.72;4.05;;;15.70;99.90;;;;;;5031798;28;20025;-40
2023/05/08 10:06:27;;;;;;;6.03;4.28;;;15.70;99.90;;;;;;5031026;28;20026;-40
2023/05/08 10:09:10;;;;;;;4.82;4.07;;;15.70;99.90;;;;;;5031643;28;20071;-39
2023/05/08 10:11:40;;;;;;;4.60;3.58;;;15.70;99.90;;;;;;5031565;28;20021;-39
2023/05/08 10:14:07;;;;;;;4.82;3.75;;;15.70;99.90;;;;;;5031535;28;20150;-40
2023/05/08 10:16:43;;;;;;;6.03;3.60;;;15.70;99.90;;;;;;5030970;28;20494;-40
2023/05/08 10:19:15;;;;;;;5.47;3.72;;;15.70;99.90;;;;;;5031470;28;20040;-40
2023/05/08 10:21:50;;;;;;;9.30;4.45;;;15.70;99.90;;;;;;5031482;28;20017;-40
2023/05/08 10:24:16;;;;;;;;;;;15.70;99.90;;;;;;5031914;28;20053;-39
2023/05/08 10:26:50;;;;;;;6.32;3.97;;;15.70;99.90;;;;;;5030755;28;20079;-40
2023/05/08 10:29:20;;;;;;;4.78;3.70;;;15.70;99.90;;;;;;5031106;28;20022;-42
2023/05/08 10:31:48;;;;;;;5.25;4.22;;;15.70;99.90;;;;;;5031199;28;20033;-40
2023/05/08 10:34:21;;;;;;;4.78;4.13;;;15.70;99.90;;;;;;5031175;28;20486;-41
2023/05/08 10:36:47;;;;;;;6.85;4.40;;;15.70;99.90;;;;;;5030548;28;20164;-40
2023/05/08 10:39:15;;;;;;;4.97;3.90;;;15.70;99.90;;;;;;5031149;28;20044;-40
2023/05/08 10:41:41;;;;;;;4.45;3.60;;;15.70;99.90;;;;;;5031053;28;20049;-40
2023/05/08 10:44:08;;;;;;;7.10;3.90;;;15.70;99.90;;;;;;5031180;28;20025;-41
2023/05/08 10:46:54;;;;;;;5.07;3.30;;;15.70;99.90;;;;;;5030567;28;20118;-40
2023/05/08 10:49:47;;;;;;;3.70;3.20;;;15.70;99.90;;;;;;5031108;28;20021;-39
2023/05/08 10:52:23;;;;;;;5.88;3.38;;;15.70;99.90;;;;;;5030992;28;20033;-39
2023/05/08 10:55:01;;;;;;;4.25;3.58;;;15.70;99.90;;;;;;5031099;28;20022;-40
2023/05/08 10:57:26;;;;;;;7.20;3.88;;;15.70;99.90;;;;;;5030430;28;20017;-39
2023/05/08 10:59:52;;;;;;;5.47;3.85;;;15.70;99.90;;;;;;5030980;28;20206;-40
2023/05/08 11:02:29;;;;;;;4.03;3.53;;;15.70;99.90;;;;;;5034166;28;20108;-40
2023/05/08 11:05:12;;;;;;;6.43;3.85;;;15.70;99.90;;;;;;5035132;28;20032;-40
2023/05/08 11:07:58;;;;;;;7.82;3.95;;;15.70;99.90;;;;;;5034940;28;20017;-40
2023/05/08 11:10:31;;;;;;;4.95;3.50;;;15.70;99.90;;;;;;5034817;28;20021;-40
2023/05/08 11:12:57;;;;;;;5.70;3.55;;;15.70;99.90;;;;;;5034877;28;20091;-40
2023/05/08 11:15:39;;;;;;;5.22;3.50;;;15.70;99.90;;;;;;5034792;28;20018;-40
2023/05/08 11:18:10;;;;;;;5.75;3.30;;;15.70;99.90;;;;;;5034452;28;20021;-40
2023/05/08 11:20:39;;;;;;;4.78;3.20;;;15.70;99.90;;;;;;5034811;28;20033;-40
2023/05/08 11:23:24;;;;;;;3.38;2.83;;;15.70;99.90;;;;;;5034708;28;20028;-40
2023/05/08 11:26:27;;;;;;;4.80;3.20;;;15.70;99.90;;;;;;5034305;28;20064;-39
2023/05/08 11:28:53;;;;;;;3.78;3.00;;;15.70;99.90;;;;;;5020445;28;20041;-40
2023/05/08 11:31:18;;;;;;;5.88;3.03;;;15.70;99.90;;;;;;5034972;28;20079;-40
2023/05/08 11:33:44;;;;;;;3.30;2.90;;;15.70;99.90;;;;;;5034523;28;20028;-39
2023/05/08 11:36:19;;;;;;;3.35;2.70;;;15.70;99.90;;;;;;5033733;28;20549;-40
2023/05/08 11:39:08;;;;;;;4.43;2.88;;;15.70;99.90;;;;;;5034872;28;20026;-40
2023/05/08 11:41:34;;;;;;;3.38;2.40;;;15.70;99.90;;;;;;5034380;28;20079;-39
2023/05/08 11:44:12;;;;;;;2.95;2.13;;;15.70;99.90;;;;;;5034391;28;20017;-41
2023/05/08 11:46:51;;;;;;;3.10;2.40;;;15.70;99.90;;;;;;5033851;28;20064;-40
2023/05/08 11:49:21;;;;;;;3.22;2.50;;;15.70;99.90;;;;;;5034255;28;20022;-42
2023/05/08 11:51:53;;;;;;;2.85;2.40;;;15.80;99.90;;;;;;5034329;28;20025;-40
2023/05/08 11:54:20;;;;;;;4.40;2.70;;;15.80;99.90;;;;;;5034242;28;20022;-39
2023/05/08 11:56:53;;;;;;;2.40;2.08;;;15.80;99.90;;;;;;5033475;28;20025;-40
2023/05/08 11:59:19;;;;;;;4.00;2.30;;;15.80;99.90;;;;;;5034226;28;20383;-40
2023/05/08 12:01:48;;;;;;;5.53;2.45;;;15.80;99.90;;;;;;5034139;28;20025;-40
2023/05/08 12:04:14;;;;;;;4.13;2.47;;;15.80;99.90;;;;;;5034011;28;20029;-40
2023/05/08 12:06:40;;;;;;;2.42;2.22;;;15.80;99.90;;;;;;5033476;28;20533;-39
2023/05/08 12:09:14;;;;;;;3.25;2.20;;;15.70;99.90;;;;;;5033860;28;20026;-39
2023/05/08 12:11:42;;;;;;;2.45;2.00;;;15.80;99.90;;;;;;5033432;28;20116;-40
2023/05/08 12:14:09;;;;;;;3.92;2.10;;;15.80;99.90;;;;;;5034038;28;20444;-40
2023/05/08 12:16:38;;;;;;;2.40;1.90;;;15.80;99.90;;;;;;5033204;28;20091;-40
2023/05/08 12:19:12;;;;;;;2.53;2.00;;;15.80;99.90;;;;;;5033723;28;20032;-40
2023/05/08 12:21:38;;;;;;;2.60;1.98;;;15.80;99.90;;;;;;5033645;28;20036;-40
2023/05/08 12:24:10;;;;;;;3.75;1.80;;;15.80;99.90;;;;;;5033508;28;20029;-40
2023/05/08 12:26:36;;;;;;;3.45;1.92;;;15.80;99.90;;;;;;5033006;28;20025;-42
2023/05/08 12:29:07;;;;;;;2.30;2.10;;;15.80;99.90;;;;;;5033611;28;20025;-40
2023/05/08 12:31:36;;;;;;;2.35;1.63;;;15.80;99.90;;;;;;5033499;28;20033;-40
2023/05/08 12:34:04;;;;;;;2.50;1.88;;;15.80;99.90;;;;;;5033526;28;20049;-39
2023/05/08 12:36:34;;;;;;;2.10;1.85;;;15.80;99.90;;;;;;5032658;28;20494;-40
2023/05/08 12:39:33;;;;;;;2.60;1.75;;;15.80;99.90;;;;;;5033578;28;20029;-40
2023/05/08 12:41:59;;;;;;;4.13;2.10;;;15.80;99.90;;;;;;5022234;28;20092;-42
2023/05/08 12:44:25;;;;;;;3.17;1.92;;;15.80;99.90;;;;;;5033311;28;20110;-40
2023/05/08 12:46:57;;;;;;;2.55;1.58;;;15.80;99.90;;;;;;5031128;28;20032;-40
2023/05/08 12:49:27;;;;;;;2.33;1.80;;;15.80;99.90;;;;;;5033107;28;20421;-40
2023/05/08 12:52:07;;;;;;;2.28;1.80;;;15.80;99.90;;;;;;5033345;28;20022;-42
2023/05/08 12:54:37;;;;;;;1.77;1.30;;;15.80;99.90;;;;;;5033131;28;20095;-40
2023/05/08 12:57:14;;;;;;;3.58;1.60;;;15.80;99.90;;;;;;5032437;28;20406;-40